Time,TemperatureF,DewpointF,PressureIn,WindDirection,WindDirectionDegrees,WindSpeedMPH,WindSpeedGustMPH,Humidity,HourlyPrecipIn,Conditions,Clouds,dailyrainin,SoftwareType,DateUTC
2015-07-06 00:04:00,68.3,63.3,30.07,West,262,0.0,0.0,84,0.00,CLR,,0.00,WeatherDisplay:10.37,2015-07-06 04:04:00,
2015-07-06 00:09:00,68.1,63.1,30.07,West,262,0.0,0.0,84,0.00,CLR,,0.00,WeatherDisplay:10.37,2015-07-06 04:09:00,
2015-07-06 00:14:00,68.1,63.1,30.07,West,262,0.0,0.0,84,0.00,CLR,,0.00,WeatherDisplay:10.37,2015-07-06 04:14:00,
2015-07-06 00:19:00,68.1,63.1,30.07,West,262,0.0,0.0,84,0.00,CLR,,0.00,WeatherDisplay:10.37,2015-07-06 04:19:00,
2015-07-06 00:24:00,68.1,63.1,30.07,West,262,0.0,0.0,84,0.00,CLR,,0.00,WeatherDisplay:10.37,2015-07-06 04:24:00,
2015-07-06 00:29:00,67.9,62.9,30.07,West,262,0.0,0.0,84,0.00,CLR,,0.00,WeatherDisplay:10.37,2015-07-06 04:29:00,
2015-07-06 00:34:00,67.8,63.1,30.07,West,262,0.0,0.0,85,0.00,CLR,,0.00,WeatherDisplay:10.37,2015-07-06 04:34:00,
2015-07-06 00:39:00,67.6,63.3,30.08,West,262,0.0,0.0,86,0.00,CLR,,0.00,WeatherDisplay:10.37,2015-07-06 04:39:00,
2015-07-06 00:44:00,67.6,63.3,30.08,West,262,0.0,0.0,86,0.00,CLR,,0.00,WeatherDisplay:10.37,2015-07-06 04:44:00,
2015-07-06 00:49:00,67.6,63.3,30.08,West,262,0.0,0.0,86,0.00,CLR,,0.00,WeatherDisplay:10.37,2015-07-06 04:49:00,
2015-07-06 00:54:00,67.4,63.1,30.08,West,262,0.0,0.0,86,0.00,CLR,,0.00,WeatherDisplay:10.37,2015-07-06 04:54:00,
2015-07-06 00:59:00,67.3,63.0,30.08,West,262,0.0,0.0,86,0.00,CLR,,0.00,WeatherDisplay:10.37,2015-07-06 04:59:00,
2015-07-06 01:04:00,67.1,63.1,30.07,West,262,0.0,0.0,87,0.00,CLR,,0.00,WeatherDisplay:10.37,2015-07-06 05:04:00,
2015-07-06 01:09:00,67.1,63.1,30.08,West,262,0.0,0.0,87,0.00,CLR,,0.00,WeatherDisplay:10.37,2015-07-06 05:09:00,
2015-07-06 01:14:00,67.1,63.1,30.07,West,262,0.0,0.0,87,0.00,CLR,,0.00,WeatherDisplay:10.37,2015-07-06 05:14:00,
2015-07-06 01:19:00,67.1,63.1,30.07,West,262,0.0,0.0,87,0.00,CLR,,0.00,WeatherDisplay:10.37,2015-07-06 05:19:00,
2015-07-06 01:24:00,66.9,62.9,30.07,West,262,0.0,0.0,87,0.00,CLR,,0.00,WeatherDisplay:10.37,2015-07-06 05:24:00,
2015-07-06 01:29:00,66.8,62.8,30.07,West,262,0.0,0.0,87,0.00,CLR,,0.00,WeatherDisplay:10.37,2015-07-06 05:29:00,
2015-07-06 01:34:00,66.6,62.6,30.07,West,262,0.0,0.0,87,0.00,CLR,,0.00,WeatherDisplay:10.37,2015-07-06 05:34:00,
2015-07-06 01:39:00,66.4,62.7,30.07,West,262,0.0,0.0,88,0.00,CLR,,0.00,WeatherDisplay:10.37,2015-07-06 05:39:00,
2015-07-06 01:44:00,66.4,62.7,30.07,West,262,0.0,0.0,88,0.00,CLR,,0.00,WeatherDisplay:10.37,2015-07-06 05:44:00,
2015-07-06 01:49:00,66.4,62.7,30.07,West,262,0.0,0.0,88,0.00,CLR,,0.00,WeatherDisplay:10.37,2015-07-06 05:49:00,
2015-07-06 01:54:00,66.4,63.1,30.07,West,262,0.0,0.0,89,0.00,CLR,,0.00,WeatherDisplay:10.37,2015-07-06 05:54:00,
2015-07-06 01:59:00,66.3,63.0,30.07,West,262,0.0,0.0,89,0.00,CLR,,0.00,WeatherDisplay:10.37,2015-07-06 05:59:00,
2015-07-06 02:04:00,66.3,63.0,30.07,West,262,0.0,0.0,89,0.00,CLR,,0.00,WeatherDisplay:10.37,2015-07-06 06:04:00,
2015-07-06 02:09:00,66.3,63.0,30.07,West,262,0.0,0.0,89,0.00,CLR,,0.00,WeatherDisplay:10.37,2015-07-06 06:09:00,
2015-07-06 02:14:00,66.3,63.0,30.07,West,262,0.0,0.0,89,0.00,CLR,,0.00,WeatherDisplay:10.37,2015-07-06 06:14:00,
2015-07-06 02:19:00,66.3,63.3,30.07,West,262,0.0,0.0,90,0.00,CLR,,0.00,WeatherDisplay:10.37,2015-07-06 06:19:00,
2015-07-06 02:24:00,66.3,63.3,30.08,West,262,0.0,0.0,90,0.00,CLR,,0.00,WeatherDisplay:10.37,2015-07-06 06:24:00,
2015-07-06 02:29:00,66.3,63.3,30.07,West,262,0.0,0.0,90,0.00,CLR,,0.00,WeatherDisplay:10.37,2015-07-06 06:29:00,
2015-07-06 02:34:00,66.1,63.1,30.07,West,262,0.0,0.0,90,0.00,CLR,,0.00,WeatherDisplay:10.37,2015-07-06 06:34:00,
2015-07-06 02:39:00,66.1,63.1,30.07,West,262,0.0,0.0,90,0.00,CLR,,0.00,WeatherDisplay:10.37,2015-07-06 06:39:00,
2015-07-06 02:44:00,66.1,63.1,30.07,West,262,0.0,0.0,90,0.00,CLR,,0.00,WeatherDisplay:10.37,2015-07-06 06:44:00,
2015-07-06 02:49:00,66.1,63.1,30.07,West,262,0.0,0.0,90,0.00,CLR,,0.00,WeatherDisplay:10.37,2015-07-06 06:49:00,
2015-07-06 02:54:00,66.0,63.0,30.07,West,262,0.0,0.0,90,0.00,CLR,,0.00,WeatherDisplay:10.37,2015-07-06 06:54:00,
2015-07-06 02:59:00,66.0,63.0,30.07,West,262,0.0,0.0,90,0.00,CLR,,0.00,WeatherDisplay:10.37,2015-07-06 06:59:00,
2015-07-06 03:04:00,66.0,63.0,30.07,West,262,0.0,0.0,90,0.00,CLR,,0.00,WeatherDisplay:10.37,2015-07-06 07:04:00,
2015-07-06 03:09:00,65.8,62.8,30.07,West,262,0.0,0.0,90,0.00,CLR,,0.00,WeatherDisplay:10.37,2015-07-06 07:09:00,
2015-07-06 03:14:00,65.6,62.6,30.07,West,262,0.0,0.0,90,0.00,CLR,,0.00,WeatherDisplay:10.37,2015-07-06 07:14:00,
2015-07-06 03:19:00,65.5,62.5,30.07,West,262,0.0,0.0,90,0.00,CLR,,0.00,WeatherDisplay:10.37,2015-07-06 07:19:00,
2015-07-06 03:24:00,65.5,62.5,30.07,West,262,0.0,0.0,90,0.00,CLR,,0.00,WeatherDisplay:10.37,2015-07-06 07:24:00,
2015-07-06 03:29:00,65.3,62.3,30.07,West,262,0.0,0.0,90,0.00,CLR,,0.00,WeatherDisplay:10.37,2015-07-06 07:29:00,
2015-07-06 03:34:00,65.3,62.3,30.07,West,262,0.0,0.0,90,0.00,CLR,,0.00,WeatherDisplay:10.37,2015-07-06 07:34:00,
2015-07-06 03:39:00,65.2,62.2,30.07,West,262,0.0,0.0,90,0.00,CLR,,0.00,WeatherDisplay:10.37,2015-07-06 07:39:00,
2015-07-06 03:44:00,65.0,62.0,30.07,West,262,0.0,0.0,90,0.00,CLR,,0.00,WeatherDisplay:10.37,2015-07-06 07:44:00,
2015-07-06 03:49:00,65.0,62.3,30.07,West,262,0.0,0.0,91,0.00,CLR,,0.00,WeatherDisplay:10.37,2015-07-06 07:49:00,
2015-07-06 03:54:00,64.8,62.1,30.07,West,262,0.0,0.0,91,0.00,CLR,,0.00,WeatherDisplay:10.37,2015-07-06 07:54:00,
2015-07-06 03:59:00,64.8,62.1,30.07,West,262,0.0,0.0,91,0.00,CLR,,0.00,WeatherDisplay:10.37,2015-07-06 07:59:00,
2015-07-06 04:04:00,64.8,62.1,30.07,West,262,0.0,0.0,91,0.00,CLR,,0.00,WeatherDisplay:10.37,2015-07-06 08:04:00,
2015-07-06 04:09:00,64.8,62.1,30.07,West,262,0.0,0.0,91,0.00,CLR,,0.00,WeatherDisplay:10.37,2015-07-06 08:09:00,
2015-07-06 04:14:00,64.7,62.0,30.07,West,262,0.0,0.0,91,0.00,CLR,,0.00,WeatherDisplay:10.37,2015-07-06 08:14:00,
2015-07-06 04:19:00,64.7,62.0,30.07,West,262,0.0,0.0,91,0.00,CLR,,0.00,WeatherDisplay:10.37,2015-07-06 08:19:00,
2015-07-06 04:24:00,64.7,62.0,30.07,West,262,0.0,0.0,91,0.00,CLR,,0.00,WeatherDisplay:10.37,2015-07-06 08:24:00,
2015-07-06 04:29:00,64.5,61.8,30.07,West,262,0.0,0.0,91,0.00,CLR,,0.00,WeatherDisplay:10.37,2015-07-06 08:29:00,
2015-07-06 04:34:00,64.3,61.6,30.07,West,262,0.0,0.0,91,0.00,CLR,,0.00,WeatherDisplay:10.37,2015-07-06 08:34:00,
2015-07-06 04:39:00,64.3,61.6,30.07,West,262,0.0,0.0,91,0.00,CLR,,0.00,WeatherDisplay:10.37,2015-07-06 08:39:00,
2015-07-06 04:44:00,64.2,61.8,30.07,West,262,0.0,0.0,92,0.00,CLR,,0.00,WeatherDisplay:10.37,2015-07-06 08:44:00,
2015-07-06 04:49:00,64.2,61.8,30.07,West,262,0.0,0.0,92,0.00,CLR,,0.00,WeatherDisplay:10.37,2015-07-06 08:49:00,
2015-07-06 04:54:00,64.3,61.9,30.07,West,262,0.0,0.0,92,0.00,CLR,,0.00,WeatherDisplay:10.37,2015-07-06 08:54:00,
2015-07-06 04:59:00,64.3,61.9,30.07,West,262,0.0,0.0,92,0.00,CLR,,0.00,WeatherDisplay:10.37,2015-07-06 08:59:00,
2015-07-06 05:04:00,64.3,61.9,30.07,West,262,0.0,0.0,92,0.00,CLR,,0.00,WeatherDisplay:10.37,2015-07-06 09:04:00,
2015-07-06 05:09:00,64.3,61.9,30.07,West,262,0.0,0.0,92,0.00,CLR,,0.00,WeatherDisplay:10.37,2015-07-06 09:09:00,
2015-07-06 05:14:00,64.3,61.9,30.07,West,262,0.0,0.0,92,0.00,CLR,,0.00,WeatherDisplay:10.37,2015-07-06 09:14:00,
2015-07-06 05:19:00,64.2,61.8,30.07,West,262,0.0,0.0,92,0.00,CLR,,0.00,WeatherDisplay:10.37,2015-07-06 09:19:00,
2015-07-06 05:24:00,63.9,61.5,30.07,West,262,0.0,0.0,92,0.00,CLR,,0.00,WeatherDisplay:10.37,2015-07-06 09:24:00,
2015-07-06 05:29:00,63.9,61.5,30.07,West,262,0.0,0.0,92,0.00,CLR,,0.00,WeatherDisplay:10.37,2015-07-06 09:29:00,
2015-07-06 05:34:00,63.9,61.5,30.07,West,262,0.0,0.0,92,0.00,CLR,,0.00,WeatherDisplay:10.37,2015-07-06 09:34:00,
2015-07-06 05:39:00,63.9,61.5,30.07,West,262,0.0,0.0,92,0.00,CLR,,0.00,WeatherDisplay:10.37,2015-07-06 09:39:00,
2015-07-06 05:44:00,63.9,61.8,30.07,West,262,0.0,0.0,93,0.00,CLR,,0.00,WeatherDisplay:10.37,2015-07-06 09:44:00,
2015-07-06 05:49:00,64.0,61.9,30.08,West,262,0.0,0.0,93,0.00,CLR,,0.00,WeatherDisplay:10.37,2015-07-06 09:49:00,
2015-07-06 05:54:00,64.0,61.9,30.07,West,262,0.0,0.0,93,0.00,CLR,,0.00,WeatherDisplay:10.37,2015-07-06 09:54:00,
2015-07-06 05:59:00,64.0,61.9,30.07,West,262,0.0,0.0,93,0.00,CLR,,0.00,WeatherDisplay:10.37,2015-07-06 09:59:00,
2015-07-06 06:04:00,64.0,61.6,30.08,West,262,0.0,0.0,92,0.00,CLR,,0.00,WeatherDisplay:10.37,2015-07-06 10:04:00,
2015-07-06 06:09:00,63.9,61.8,30.08,West,262,0.0,0.0,93,0.00,CLR,,0.00,WeatherDisplay:10.37,2015-07-06 10:09:00,
2015-07-06 06:14:00,63.9,61.8,30.08,West,262,0.0,0.0,93,0.00,CLR,,0.00,WeatherDisplay:10.37,2015-07-06 10:14:00,
2015-07-06 06:19:00,63.9,61.8,30.08,West,262,0.0,0.0,93,0.00,CLR,,0.00,WeatherDisplay:10.37,2015-07-06 10:19:00,
2015-07-06 06:24:00,64.0,61.9,30.08,West,262,0.0,0.0,93,0.00,CLR,,0.00,WeatherDisplay:10.37,2015-07-06 10:24:00,
2015-07-06 06:29:00,64.0,61.9,30.08,West,262,0.0,0.0,93,0.00,CLR,,0.00,WeatherDisplay:10.37,2015-07-06 10:29:00,
2015-07-06 06:34:00,64.2,62.1,30.09,West,262,0.0,0.0,93,0.00,CLR,,0.00,WeatherDisplay:10.37,2015-07-06 10:34:00,
2015-07-06 06:39:00,64.3,62.2,30.09,West,262,0.0,0.0,93,0.00,CLR,,0.00,WeatherDisplay:10.37,2015-07-06 10:39:00,
2015-07-06 06:44:00,64.5,62.4,30.08,West,262,0.0,0.0,93,0.00,CLR,,0.00,WeatherDisplay:10.37,2015-07-06 10:44:00,
2015-07-06 06:49:00,64.7,62.6,30.09,West,262,0.0,0.0,93,0.00,CLR,,0.00,WeatherDisplay:10.37,2015-07-06 10:49:00,
2015-07-06 06:54:00,64.7,62.6,30.09,West,278,2.3,0.0,93,0.00,CLR,,0.00,WeatherDisplay:10.37,2015-07-06 10:54:00,
2015-07-06 06:59:00,64.7,62.6,30.09,West,278,0.0,0.0,93,0.00,CLR,,0.00,WeatherDisplay:10.37,2015-07-06 10:59:00,
2015-07-06 07:04:00,64.8,62.7,30.09,West,278,0.0,0.0,93,0.00,CLR,,0.00,WeatherDisplay:10.37,2015-07-06 11:04:00,
2015-07-06 07:10:00,65.0,62.6,30.09,West,278,0.0,0.0,92,0.00,CLR,,0.00,WeatherDisplay:10.37,2015-07-06 11:10:00,
2015-07-06 07:15:00,65.0,62.6,30.09,West,278,0.0,0.0,92,0.00,CLR,,0.00,WeatherDisplay:10.37,2015-07-06 11:15:00,
2015-07-06 07:20:00,65.2,62.8,30.09,West,278,0.0,0.0,92,0.00,CLR,,0.00,WeatherDisplay:10.37,2015-07-06 11:20:00,
2015-07-06 07:25:00,65.3,62.9,30.09,West,278,0.0,0.0,92,0.00,CLR,,0.00,WeatherDisplay:10.37,2015-07-06 11:25:00,
2015-07-06 07:30:00,65.5,63.1,30.09,West,278,0.0,0.0,92,0.00,CLR,,0.00,WeatherDisplay:10.37,2015-07-06 11:30:00,
2015-07-06 07:35:00,65.6,63.2,30.09,West,278,0.0,0.0,92,0.00,CLR,,0.00,WeatherDisplay:10.37,2015-07-06 11:35:00,
2015-07-06 07:40:00,65.8,63.1,30.09,West,278,0.0,0.0,91,0.00,CLR,,0.00,WeatherDisplay:10.37,2015-07-06 11:40:00,
2015-07-06 07:45:00,66.0,63.3,30.09,West,278,0.0,0.0,91,0.00,CLR,,0.00,WeatherDisplay:10.37,2015-07-06 11:45:00,
2015-07-06 07:50:00,66.1,63.4,30.09,West,278,0.0,0.0,91,0.00,CLR,,0.00,WeatherDisplay:10.37,2015-07-06 11:50:00,
2015-07-06 07:55:00,66.4,63.7,30.09,West,278,0.0,0.0,91,0.00,CLR,,0.00,WeatherDisplay:10.37,2015-07-06 11:55:00,
2015-07-06 08:00:00,66.6,63.9,30.09,West,278,0.0,0.0,91,0.00,CLR,,0.00,WeatherDisplay:10.37,2015-07-06 12:00:00,
2015-07-06 08:05:00,66.8,63.8,30.09,West,278,0.0,0.0,90,0.00,CLR,,0.00,WeatherDisplay:10.37,2015-07-06 12:05:00,
2015-07-06 08:10:00,66.9,63.6,30.09,West,278,0.0,0.0,89,0.00,CLR,,0.00,WeatherDisplay:10.37,2015-07-06 12:10:00,
2015-07-06 08:15:00,67.3,63.9,30.09,West,278,0.0,0.0,89,0.00,CLR,,0.00,WeatherDisplay:10.37,2015-07-06 12:15:00,
2015-07-06 08:20:00,67.6,63.9,30.08,West,278,0.0,0.0,88,0.00,CLR,,0.00,WeatherDisplay:10.37,2015-07-06 12:20:00,
2015-07-06 08:25:00,67.9,64.5,30.08,West,278,0.0,0.0,89,0.00,CLR,,0.00,WeatherDisplay:10.37,2015-07-06 12:25:00,
2015-07-06 08:30:00,68.3,64.6,30.08,West,278,0.0,0.0,88,0.00,CLR,,0.00,WeatherDisplay:10.37,2015-07-06 12:30:00,
2015-07-06 08:35:00,68.8,65.1,30.09,West,278,0.0,0.0,88,0.00,CLR,,0.00,WeatherDisplay:10.37,2015-07-06 12:35:00,
2015-07-06 08:40:00,69.3,64.9,30.09,West,278,0.0,0.0,86,0.00,CLR,,0.00,WeatherDisplay:10.37,2015-07-06 12:40:00,
2015-07-06 08:45:00,69.6,64.9,30.09,West,278,0.0,0.0,85,0.00,CLR,,0.00,WeatherDisplay:10.37,2015-07-06 12:45:00,
2015-07-06 08:50:00,69.9,65.2,30.09,West,278,0.0,0.0,85,0.00,CLR,,0.00,WeatherDisplay:10.37,2015-07-06 12:50:00,
2015-07-06 08:55:00,70.4,65.3,30.09,West,278,1.0,1.0,84,0.00,CLR,,0.00,WeatherDisplay:10.37,2015-07-06 12:55:00,
2015-07-06 09:00:00,70.8,65.4,30.09,West,278,0.0,1.0,83,0.00,CLR,,0.00,WeatherDisplay:10.37,2015-07-06 13:00:00,
2015-07-06 09:05:00,71.1,65.3,30.09,West,277,0.0,0.0,82,0.00,CLR,,0.00,WeatherDisplay:10.37,2015-07-06 13:05:00,
2015-07-06 09:10:00,71.5,65.4,30.09,West,277,0.0,0.0,81,0.00,CLR,,0.00,WeatherDisplay:10.37,2015-07-06 13:10:00,
2015-07-06 09:15:00,72.0,65.5,30.09,West,263,0.0,1.0,80,0.00,CLR,,0.00,WeatherDisplay:10.37,2015-07-06 13:15:00,
2015-07-06 09:20:00,72.3,65.4,30.08,WSW,250,0.0,0.0,79,0.00,CLR,,0.00,WeatherDisplay:10.37,2015-07-06 13:20:00,
2015-07-06 09:25:00,72.7,65.4,30.08,WSW,250,0.0,0.0,78,0.00,CLR,,0.00,WeatherDisplay:10.37,2015-07-06 13:25:00,
2015-07-06 09:30:00,73.0,65.0,30.09,WSW,256,0.0,3.0,76,0.00,CLR,,0.00,WeatherDisplay:10.37,2015-07-06 13:30:00,